createdAt,value
2018-12-29T00:02:06.865Z,55.03
2018-12-29T00:04:34.266Z,54.43
2018-12-29T00:07:01.887Z,56.60
2018-12-29T00:09:29.456Z,52.57
2018-12-29T00:11:56.986Z,53.53
2018-12-29T00:14:25.196Z,56.70
2018-12-29T00:16:52.777Z,58.17
2018-12-29T00:19:20.122Z,59.37
2018-12-29T00:21:47.496Z,58.80
2018-12-29T00:24:14.980Z,55.27
2018-12-29T00:26:42.588Z,55.93
2018-12-29T00:29:10.496Z,55.53
2018-12-29T00:31:37.976Z,57.67
2018-12-29T00:34:05.658Z,59.77
2018-12-29T00:36:33.158Z,57.90
2018-12-29T00:39:00.996Z,57.53
2018-12-29T00:41:28.588Z,58.63
2018-12-29T00:43:56.107Z,55.40
2018-12-29T00:46:23.708Z,55.60
2018-12-29T00:48:51.548Z,54.17
2018-12-29T00:51:18.878Z,53.50
2018-12-29T00:53:46.418Z,55.60
2018-12-29T00:56:14.167Z,53.30
2018-12-29T00:58:41.728Z,49.77
2018-12-29T01:01:09.628Z,51.70
2018-12-29T01:03:37.289Z,56.27
2018-12-29T01:06:04.836Z,52.57
2018-12-29T01:08:32.488Z,51.20
2018-12-29T01:11:00.136Z,48.97
2018-12-29T01:13:27.707Z,59.20
2018-12-29T01:15:55.258Z,56.00
2018-12-29T01:18:22.820Z,57.17
2018-12-29T01:20:50.165Z,56.23
2018-12-29T01:23:17.879Z,52.07
2018-12-29T01:25:45.417Z,59.70
2018-12-29T01:28:13.837Z,53.63
2018-12-29T01:30:41.402Z,54.70
2018-12-29T01:33:08.767Z,51.40
2018-12-29T01:35:36.452Z,53.50
2018-12-29T01:38:04.188Z,54.57
2018-12-29T01:40:31.778Z,52.73
2018-12-29T01:42:59.267Z,51.63
2018-12-29T01:45:26.790Z,55.57
2018-12-29T01:47:54.367Z,54.40
2018-12-29T01:50:21.938Z,50.83
2018-12-29T01:52:49.487Z,49.60
2018-12-29T01:55:17.133Z,54.37
2018-12-29T01:57:44.598Z,55.90
2018-12-29T02:00:12.098Z,53.37
2018-12-29T02:02:39.491Z,50.83
2018-12-29T02:05:10.558Z,52.00
2018-12-29T02:07:38.068Z,51.10
2018-12-29T02:10:06.230Z,52.20
2018-12-29T02:12:33.900Z,53.73
2018-12-29T02:15:01.412Z,56.00
2018-12-29T02:17:28.930Z,56.67
2018-12-29T02:19:56.457Z,54.20
2018-12-29T02:22:23.939Z,52.43
2018-12-29T02:24:51.597Z,51.33
2018-12-29T02:27:19.018Z,54.50
2018-12-29T02:29:46.658Z,55.73
2018-12-29T02:32:13.999Z,51.83
2018-12-29T02:34:41.960Z,54.30
2018-12-29T02:37:09.440Z,53.03
2018-12-29T02:39:37.448Z,45.03
2018-12-29T02:42:04.888Z,48.67
2018-12-29T02:44:32.487Z,49.40
2018-12-29T02:46:59.928Z,46.57
2018-12-29T02:49:27.527Z,47.73
2018-12-29T02:51:55.038Z,47.50
2018-12-29T02:54:22.728Z,44.80
2018-12-29T02:56:50.258Z,46.27
2018-12-29T02:59:17.978Z,45.37
2018-12-29T03:01:45.602Z,40.67
2018-12-29T03:04:12.990Z,37.40
2018-12-29T03:07:00.277Z,34.10
2018-12-29T03:09:28.458Z,37.63
2018-12-29T03:11:55.767Z,34.00
2018-12-29T03:14:23.194Z,33.07
2018-12-29T03:16:50.548Z,33.27
2018-12-29T03:19:17.777Z,32.47
2018-12-29T03:21:45.430Z,31.77
2018-12-29T03:24:12.897Z,31.77
2018-12-29T03:26:40.438Z,31.97
2018-12-29T03:29:08.198Z,34.17
2018-12-29T03:31:35.336Z,31.43
2018-12-29T03:34:02.783Z,30.27
2018-12-29T03:36:30.228Z,28.70
2018-12-29T03:38:57.748Z,32.07
2018-12-29T03:41:25.669Z,32.63
2018-12-29T03:43:53.468Z,29.90
2018-12-29T03:46:21.534Z,32.97
2018-12-29T03:48:49.247Z,33.17
2018-12-29T03:51:16.923Z,33.57
2018-12-29T03:53:44.999Z,33.57
2018-12-29T03:56:12.795Z,31.37
2018-12-29T03:58:40.149Z,33.70
2018-12-29T04:01:07.779Z,32.63
2018-12-29T04:03:35.213Z,34.33
2018-12-29T04:06:03.017Z,32.20
2018-12-29T04:08:30.540Z,29.10
2018-12-29T04:10:57.873Z,30.40
2018-12-29T04:13:25.442Z,32.20
2018-12-29T04:15:57.925Z,30.80
2018-12-29T04:18:22.499Z,31.60
2018-12-29T04:20:50.109Z,27.57
2018-12-29T04:23:17.697Z,29.63
2018-12-29T04:25:45.189Z,30.50
2018-12-29T04:28:12.688Z,33.67
2018-12-29T04:30:39.910Z,31.30
2018-12-29T04:33:07.258Z,25.70
2018-12-29T04:35:34.809Z,29.63
2018-12-29T04:38:02.497Z,31.40
2018-12-29T04:40:29.790Z,29.83
2018-12-29T04:42:57.669Z,30.17
2018-12-29T04:45:25.179Z,30.03
2018-12-29T04:47:52.681Z,29.20
2018-12-29T04:50:20.188Z,29.00
2018-12-29T04:52:47.922Z,28.83
2018-12-29T04:55:15.569Z,31.17
2018-12-29T04:57:43.278Z,30.57
2018-12-29T05:00:11.127Z,33.30
2018-12-29T05:02:38.617Z,30.30
2018-12-29T05:05:06.067Z,29.83
2018-12-29T05:07:33.828Z,30.83
2018-12-29T05:10:01.369Z,29.47
2018-12-29T05:12:28.898Z,33.97
2018-12-29T05:14:56.369Z,31.10
2018-12-29T05:17:23.888Z,35.90
2018-12-29T05:19:51.379Z,34.13
2018-12-29T05:22:18.838Z,33.93
2018-12-29T05:24:46.198Z,36.13
2018-12-29T05:27:13.925Z,36.67
2018-12-29T05:29:41.549Z,36.10
2018-12-29T05:32:09.318Z,41.03
2018-12-29T05:34:36.808Z,41.33
2018-12-29T05:37:04.250Z,43.40
2018-12-29T05:39:31.742Z,43.53
2018-12-29T05:41:59.208Z,39.93
2018-12-29T05:44:26.618Z,42.87
2018-12-29T05:46:53.868Z,47.77
2018-12-29T05:49:21.939Z,48.23
2018-12-29T05:51:49.259Z,45.87
2018-12-29T05:54:16.750Z,51.20
2018-12-29T05:56:44.239Z,49.23
2018-12-29T05:59:11.789Z,52.73
2018-12-29T06:01:39.399Z,48.80
2018-12-29T06:04:06.778Z,49.10
2018-12-29T06:06:34.471Z,46.83
2018-12-29T06:09:03.930Z,52.27
2018-12-29T06:11:32.078Z,52.73
2018-12-29T06:13:59.599Z,49.27
2018-12-29T06:16:27.782Z,50.47
2018-12-29T06:18:55.598Z,48.23
2018-12-29T06:21:22.968Z,51.73
2018-12-29T06:23:51.192Z,49.20
2018-12-29T06:26:18.647Z,49.10
2018-12-29T06:28:46.177Z,48.20
2018-12-29T06:31:13.349Z,46.77
2018-12-29T06:33:40.908Z,54.43
2018-12-29T06:36:08.460Z,49.80
2018-12-29T06:38:36.009Z,48.07
2018-12-29T06:41:03.927Z,49.70
2018-12-29T06:43:31.498Z,50.83
2018-12-29T06:45:59.068Z,50.70
2018-12-29T06:48:26.718Z,46.67
2018-12-29T06:50:54.648Z,48.67
2018-12-29T06:53:22.249Z,51.70
2018-12-29T06:55:49.888Z,48.50
2018-12-29T06:58:17.488Z,52.40
2018-12-29T07:00:44.918Z,44.63
2018-12-29T07:03:12.521Z,49.47
2018-12-29T07:05:40.407Z,44.13
2018-12-29T07:08:07.782Z,37.40
2018-12-29T07:10:35.230Z,42.23
2018-12-29T07:13:02.670Z,40.70
2018-12-29T07:15:30.411Z,41.47
2018-12-29T07:17:57.948Z,39.97
2018-12-29T07:20:25.318Z,40.47
2018-12-29T07:22:52.857Z,35.60
2018-12-29T07:25:20.309Z,40.03
2018-12-29T07:27:47.988Z,39.70
2018-12-29T07:30:15.877Z,40.83
2018-12-29T07:32:43.649Z,36.23
2018-12-29T07:35:11.209Z,39.37
2018-12-29T07:37:38.803Z,39.23
2018-12-29T07:40:06.329Z,35.40
2018-12-29T07:42:34.038Z,40.77
2018-12-29T07:45:01.540Z,40.57
2018-12-29T07:47:28.977Z,37.17
2018-12-29T07:49:56.518Z,36.80
2018-12-29T07:52:24.017Z,36.87
2018-12-29T07:54:51.669Z,38.30
2018-12-29T07:57:19.614Z,37.43
2018-12-29T07:59:47.298Z,34.63
2018-12-29T08:02:14.808Z,35.13
2018-12-29T08:04:42.588Z,32.37
2018-12-29T08:07:10.120Z,37.40
2018-12-29T08:09:37.787Z,31.90
2018-12-29T08:12:05.477Z,30.80
2018-12-29T08:14:33.289Z,29.00
2018-12-29T08:17:00.630Z,32.53
2018-12-29T08:19:28.187Z,32.23
2018-12-29T08:21:56.908Z,32.20
2018-12-29T08:24:24.348Z,33.63
2018-12-29T08:26:51.719Z,30.97
2018-12-29T08:29:19.193Z,30.57
2018-12-29T08:31:46.671Z,29.80
2018-12-29T08:34:14.585Z,31.10
2018-12-29T08:36:42.191Z,31.70
2018-12-29T08:39:09.878Z,30.23
2018-12-29T08:41:38.991Z,26.17
2018-12-29T08:44:06.812Z,31.77
2018-12-29T08:46:34.768Z,26.73
2018-12-29T08:49:03.227Z,30.13
2018-12-29T08:51:31.548Z,29.73
2018-12-29T08:53:59.758Z,32.70
2018-12-29T08:56:27.628Z,39.27
2018-12-29T08:58:55.488Z,38.00
2018-12-29T09:01:23.169Z,42.80
2018-12-29T09:03:51.389Z,39.63
2018-12-29T09:06:19.688Z,40.60
2018-12-29T09:08:47.418Z,40.00
2018-12-29T09:11:15.528Z,34.43
2018-12-29T09:13:43.581Z,39.50
2018-12-29T09:16:11.757Z,34.97
2018-12-29T09:18:39.967Z,39.43
2018-12-29T09:21:08.547Z,42.47
2018-12-29T09:23:36.428Z,46.43
2018-12-29T09:26:04.766Z,43.53
2018-12-29T09:28:33.178Z,38.07
2018-12-29T09:31:00.639Z,38.17
2018-12-29T09:33:28.469Z,48.17
2018-12-29T09:35:56.391Z,47.97
2018-12-29T09:38:24.319Z,41.80
2018-12-29T09:40:52.217Z,45.07
2018-12-29T09:43:20.399Z,46.40
2018-12-29T09:45:48.388Z,46.53
2018-12-29T09:48:16.027Z,47.20
2018-12-29T09:50:43.766Z,42.43
2018-12-29T09:53:11.777Z,41.07
2018-12-29T09:55:39.530Z,44.47
2018-12-29T09:58:07.537Z,43.03
2018-12-29T10:00:35.447Z,41.47
2018-12-29T10:03:03.737Z,41.20
2018-12-29T10:05:31.711Z,52.00
2018-12-29T10:07:59.617Z,39.40
2018-12-29T10:10:27.687Z,40.87
2018-12-29T10:12:55.830Z,38.33
2018-12-29T10:15:23.857Z,43.67
2018-12-29T10:17:51.500Z,36.93
2018-12-29T10:20:18.957Z,37.87
2018-12-29T10:22:46.850Z,37.93
2018-12-29T10:25:14.518Z,42.37
2018-12-29T10:27:41.830Z,41.00
2018-12-29T10:30:09.587Z,40.47
2018-12-29T10:32:36.928Z,41.40
2018-12-29T10:35:04.566Z,47.37
2018-12-29T10:37:31.908Z,44.70
2018-12-29T10:39:59.558Z,43.53
2018-12-29T10:42:26.997Z,40.60
2018-12-29T10:44:54.787Z,47.33
2018-12-29T10:47:22.845Z,41.30
2018-12-29T10:49:50.318Z,44.70
2018-12-29T10:52:17.617Z,41.43
2018-12-29T10:54:44.996Z,40.03
2018-12-29T10:57:12.637Z,34.53
2018-12-29T10:59:39.896Z,38.57
2018-12-29T11:02:07.486Z,35.03
2018-12-29T11:04:34.948Z,37.83
2018-12-29T11:07:02.487Z,32.70
2018-12-29T11:09:29.976Z,37.77
2018-12-29T11:11:58.178Z,37.13
2018-12-29T11:14:25.588Z,31.00
2018-12-29T11:16:53.885Z,34.63
2018-12-29T11:19:21.318Z,38.43
2018-12-29T11:21:48.998Z,36.23
2018-12-29T11:24:16.379Z,36.63
2018-12-29T11:26:44.036Z,34.33
2018-12-29T11:29:11.541Z,28.63
2018-12-29T11:31:39.110Z,31.43
2018-12-29T11:34:06.717Z,30.33
2018-12-29T11:36:34.320Z,33.73
2018-12-29T11:39:01.957Z,34.63
2018-12-29T11:41:30.464Z,34.97
2018-12-29T11:43:58.218Z,36.93
2018-12-29T11:46:25.689Z,33.03
2018-12-29T11:48:53.388Z,35.80
2018-12-29T11:51:21.150Z,35.83
2018-12-29T11:53:49.070Z,33.47
2018-12-29T11:56:16.698Z,34.90
2018-12-29T11:58:44.227Z,37.10
2018-12-29T12:01:11.887Z,36.57
2018-12-29T12:03:39.479Z,35.97
2018-12-29T12:06:06.976Z,35.70
2018-12-29T12:08:34.657Z,35.27
2018-12-29T12:11:02.307Z,34.87
2018-12-29T12:13:29.878Z,35.27
2018-12-29T12:15:57.638Z,36.43
2018-12-29T12:18:25.288Z,40.93
2018-12-29T12:20:52.720Z,35.03
2018-12-29T12:23:20.557Z,38.20
2018-12-29T12:25:48.148Z,38.07
2018-12-29T12:28:15.636Z,39.73
2018-12-29T12:30:43.258Z,42.97
2018-12-29T12:33:11.246Z,41.50
2018-12-29T12:35:39.266Z,39.07
2018-12-29T12:38:07.314Z,43.53
2018-12-29T12:40:35.046Z,40.30
2018-12-29T12:43:02.629Z,41.93
2018-12-29T12:45:30.300Z,42.20
2018-12-29T12:48:04.903Z,41.10
2018-12-29T12:50:27.241Z,37.43
2018-12-29T12:52:55.039Z,40.97
2018-12-29T12:55:22.750Z,41.57
2018-12-29T12:57:50.137Z,44.60
2018-12-29T13:00:18.017Z,42.40
2018-12-29T13:02:45.730Z,42.13
2018-12-29T13:05:13.370Z,47.13
2018-12-29T13:07:40.888Z,48.47
2018-12-29T13:10:08.719Z,50.50
2018-12-29T13:12:36.249Z,49.03
2018-12-29T13:15:04.908Z,53.07
2018-12-29T13:17:32.407Z,55.43
2018-12-29T13:20:00.422Z,54.10
2018-12-29T13:22:27.890Z,51.97
2018-12-29T13:24:55.749Z,54.37
2018-12-29T13:27:23.476Z,55.60
2018-12-29T13:29:51.036Z,55.57
2018-12-29T13:32:18.556Z,51.10
2018-12-29T13:34:46.549Z,53.83
2018-12-29T13:37:14.106Z,50.23
2018-12-29T13:39:41.729Z,51.67
2018-12-29T13:42:09.508Z,53.50
2018-12-29T13:44:37.107Z,55.47
2018-12-29T13:47:04.857Z,54.73
2018-12-29T13:49:32.686Z,50.73
2018-12-29T13:51:59.909Z,50.57
2018-12-29T13:54:27.977Z,44.90
2018-12-29T13:56:55.697Z,45.83
2018-12-29T13:59:23.386Z,43.07
2018-12-29T14:01:51.335Z,50.90
2018-12-29T14:04:19.896Z,51.30
2018-12-29T14:06:47.446Z,45.73
2018-12-29T14:09:15.127Z,50.33
2018-12-29T14:11:42.916Z,49.23
2018-12-29T14:14:10.736Z,45.53
2018-12-29T14:16:39.126Z,46.93
2018-12-29T14:19:06.739Z,48.60
2018-12-29T14:21:34.568Z,42.87
2018-12-29T14:24:02.018Z,50.43
2018-12-29T14:26:29.524Z,48.00
2018-12-29T14:28:57.241Z,49.23
2018-12-29T14:31:24.938Z,50.10
2018-12-29T14:33:52.455Z,42.90
2018-12-29T14:36:19.967Z,46.93
2018-12-29T14:38:47.627Z,44.67
2018-12-29T14:41:15.226Z,48.93
2018-12-29T14:43:42.806Z,45.47
2018-12-29T14:46:10.706Z,46.57
2018-12-29T14:48:38.234Z,47.93
2018-12-29T14:51:05.837Z,42.10
2018-12-29T14:53:33.255Z,45.13
2018-12-29T14:56:01.837Z,44.23
2018-12-29T14:58:29.376Z,41.33
2018-12-29T15:00:57.265Z,47.47
2018-12-29T15:03:24.838Z,46.67
2018-12-29T15:05:52.397Z,43.43
2018-12-29T15:08:20.260Z,43.17
2018-12-29T15:10:48.217Z,49.97
2018-12-29T15:13:16.038Z,43.07
2018-12-29T15:15:43.776Z,45.23
2018-12-29T15:18:11.587Z,48.20
2018-12-29T15:20:39.649Z,44.23
2018-12-29T15:23:07.740Z,47.10
2018-12-29T15:25:35.247Z,48.30
2018-12-29T15:28:03.216Z,48.90
2018-12-29T15:30:31.176Z,48.00
2018-12-29T15:32:58.956Z,51.53
2018-12-29T15:35:26.498Z,48.57
2018-12-29T15:37:54.423Z,51.43
2018-12-29T15:40:21.968Z,43.87
2018-12-29T15:42:50.338Z,48.57
2018-12-29T15:45:18.258Z,44.87
2018-12-29T15:47:46.535Z,44.67
2018-12-29T15:50:13.996Z,49.50
2018-12-29T15:52:42.097Z,48.80
2018-12-29T15:55:09.631Z,48.47
2018-12-29T15:57:37.096Z,46.90
2018-12-29T16:00:04.878Z,47.93
2018-12-29T16:02:32.858Z,44.53
2018-12-29T16:05:00.572Z,48.03
2018-12-29T16:07:28.298Z,50.23
2018-12-29T16:09:55.889Z,45.13
2018-12-29T16:12:23.466Z,47.27
2018-12-29T16:14:51.288Z,48.67
2018-12-29T16:17:18.716Z,46.93
2018-12-29T16:19:46.796Z,45.47
2018-12-29T16:22:14.503Z,49.33
2018-12-29T16:24:42.417Z,45.30
2018-12-29T16:27:09.685Z,52.13
2018-12-29T16:29:37.556Z,46.73
2018-12-29T16:32:05.112Z,46.13
2018-12-29T16:34:32.766Z,46.80
2018-12-29T16:37:00.419Z,49.40
2018-12-29T16:39:29.068Z,47.57
2018-12-29T16:41:56.808Z,48.80
2018-12-29T16:44:24.687Z,45.97
2018-12-29T16:46:52.746Z,46.17
2018-12-29T16:49:20.467Z,45.43
2018-12-29T16:51:48.017Z,46.90
2018-12-29T16:54:15.668Z,43.10
2018-12-29T16:56:43.032Z,46.03
2018-12-29T16:59:10.576Z,44.40
2018-12-29T17:01:38.627Z,45.47
2018-12-29T17:04:06.596Z,45.13
2018-12-29T17:06:34.596Z,50.43
2018-12-29T17:09:02.428Z,46.63
2018-12-29T17:11:30.298Z,44.63
2018-12-29T17:13:57.746Z,46.23
2018-12-29T17:16:25.328Z,48.67
2018-12-29T17:18:52.959Z,46.23
2018-12-29T17:21:20.506Z,45.27
2018-12-29T17:23:48.667Z,46.27
2018-12-29T17:26:16.401Z,47.97
2018-12-29T17:28:43.877Z,50.40
2018-12-29T17:31:12.027Z,50.07
2018-12-29T17:33:39.577Z,47.33
2018-12-29T17:36:07.177Z,46.47
2018-12-29T17:38:34.886Z,48.63
2018-12-29T17:41:02.627Z,49.57
2018-12-29T17:43:30.236Z,51.43
2018-12-29T17:45:58.316Z,48.03
2018-12-29T17:48:25.627Z,49.60
2018-12-29T17:50:53.277Z,47.43
2018-12-29T17:53:21.339Z,50.97
2018-12-29T17:55:48.646Z,47.27
2018-12-29T17:58:16.137Z,48.73
2018-12-29T18:00:43.757Z,48.33
2018-12-29T18:03:13.559Z,47.80
2018-12-29T18:05:41.267Z,45.83
2018-12-29T18:08:08.936Z,49.67
2018-12-29T18:10:36.528Z,47.80
2018-12-29T18:13:04.301Z,52.27
2018-12-29T18:15:31.567Z,49.37
2018-12-29T18:17:59.466Z,49.10
2018-12-29T18:20:27.088Z,48.03
2018-12-29T18:22:54.736Z,48.60
2018-12-29T18:25:22.174Z,52.30
2018-12-29T18:27:49.699Z,53.80
2018-12-29T18:30:17.098Z,49.70
2018-12-29T18:32:44.689Z,48.63
2018-12-29T18:35:12.297Z,53.40
2018-12-29T18:37:40.126Z,48.93
2018-12-29T18:40:07.847Z,53.83
2018-12-29T18:42:35.367Z,48.47
2018-12-29T18:45:02.769Z,45.13
2018-12-29T18:47:30.487Z,45.93
2018-12-29T18:49:57.819Z,44.97
2018-12-29T18:52:25.681Z,46.27
2018-12-29T18:54:53.213Z,47.50
2018-12-29T18:57:20.745Z,47.37
2018-12-29T18:59:48.107Z,48.83
2018-12-29T19:02:15.455Z,45.97
2018-12-29T19:04:43.628Z,48.67
2018-12-29T19:07:11.397Z,48.47
2018-12-29T19:09:38.951Z,49.17
2018-12-29T19:12:11.169Z,46.83
2018-12-29T19:14:36.226Z,45.90
2018-12-29T19:17:03.555Z,43.47
2018-12-29T19:19:31.536Z,43.90
2018-12-29T19:21:59.017Z,43.80
2018-12-29T19:24:26.808Z,45.23
2018-12-29T19:26:54.445Z,44.40
2018-12-29T19:29:22.086Z,43.37
2018-12-29T19:31:49.526Z,44.20
2018-12-29T19:34:17.616Z,44.47
2018-12-29T19:36:44.987Z,44.27
2018-12-29T19:39:12.875Z,45.57
2018-12-29T19:41:46.585Z,46.87
2018-12-29T19:44:09.768Z,45.57
2018-12-29T19:46:37.715Z,47.10
2018-12-29T19:49:05.527Z,45.57
2018-12-29T19:51:33.075Z,46.57
2018-12-29T19:54:00.577Z,46.43
2018-12-29T19:56:28.056Z,46.90
2018-12-29T19:58:55.913Z,48.37
2018-12-29T20:01:23.367Z,49.33
2018-12-29T20:03:51.119Z,49.40
2018-12-29T20:06:18.658Z,51.03
2018-12-29T20:08:46.351Z,52.37
2018-12-29T20:11:13.875Z,47.97
2018-12-29T20:13:41.719Z,45.17
2018-12-29T20:16:09.855Z,47.90
2018-12-29T20:18:37.855Z,48.57
2018-12-29T20:21:06.109Z,47.53
2018-12-29T20:23:33.711Z,46.60
2018-12-29T20:26:01.185Z,50.77
2018-12-29T20:28:28.978Z,46.70
2018-12-29T20:30:56.635Z,47.83
2018-12-29T20:33:24.337Z,46.93
2018-12-29T20:35:51.623Z,48.83
2018-12-29T20:38:19.136Z,48.33
2018-12-29T20:40:46.805Z,45.33
2018-12-29T20:43:14.580Z,43.60
2018-12-29T20:45:42.782Z,44.23
2018-12-29T20:48:11.087Z,47.67
2018-12-29T20:50:38.595Z,47.53
2018-12-29T20:53:06.158Z,43.07
2018-12-29T20:55:33.625Z,42.80
2018-12-29T20:58:01.145Z,44.47
2018-12-29T21:00:28.886Z,44.37
2018-12-29T21:02:56.506Z,46.40
2018-12-29T21:05:25.672Z,50.27
2018-12-29T21:07:53.466Z,44.47
2018-12-29T21:10:21.255Z,47.07
2018-12-29T21:12:49.356Z,48.13
2018-12-29T21:15:16.871Z,46.67
2018-12-29T21:17:44.955Z,47.77
2018-12-29T21:20:17.250Z,41.43
2018-12-29T21:22:42.134Z,43.87
2018-12-29T21:25:10.316Z,42.10
2018-12-29T21:27:38.116Z,44.70
2018-12-29T21:30:06.806Z,46.10
2018-12-29T21:32:34.405Z,46.23
2018-12-29T21:35:21.784Z,47.30
2018-12-29T21:37:49.456Z,48.93
2018-12-29T21:40:16.844Z,46.37
2018-12-29T21:42:44.406Z,40.80
2018-12-29T21:45:12.014Z,45.90
2018-12-29T21:47:40.016Z,45.67
2018-12-29T21:50:07.541Z,41.37
2018-12-29T21:52:35.414Z,42.17
2018-12-29T21:55:03.146Z,49.17
2018-12-29T21:57:30.915Z,42.70
2018-12-29T21:59:58.546Z,43.67
2018-12-29T22:02:26.175Z,40.20
2018-12-29T22:04:53.646Z,41.97
2018-12-29T22:07:21.057Z,41.23
2018-12-29T22:09:48.262Z,42.23
2018-12-29T22:12:16.356Z,38.37
2018-12-29T22:14:44.478Z,42.20
2018-12-29T22:17:12.227Z,44.07
2018-12-29T22:19:39.796Z,41.00
2018-12-29T22:22:08.046Z,44.47
2018-12-29T22:24:35.596Z,40.77
2018-12-29T22:27:03.116Z,39.97
2018-12-29T22:29:30.779Z,40.47
2018-12-29T22:31:58.387Z,43.50
2018-12-29T22:34:25.748Z,40.23
2018-12-29T22:36:53.697Z,37.57
2018-12-29T22:39:21.187Z,41.23
2018-12-29T22:41:48.750Z,41.13
2018-12-29T22:44:16.155Z,41.33
2018-12-29T22:46:43.683Z,37.50
2018-12-29T22:49:30.957Z,37.80
2018-12-29T22:51:58.936Z,41.70
2018-12-29T22:54:26.496Z,39.57
2018-12-29T22:56:53.918Z,41.43
2018-12-29T22:59:21.536Z,38.53
2018-12-29T23:01:49.077Z,40.77
2018-12-29T23:04:16.657Z,42.57
2018-12-29T23:06:44.339Z,41.83
2018-12-29T23:09:12.106Z,39.07
2018-12-29T23:11:39.755Z,37.43
2018-12-29T23:14:07.936Z,38.70
2018-12-29T23:16:35.608Z,36.20
2018-12-29T23:19:03.176Z,35.93
2018-12-29T23:21:30.547Z,32.87
2018-12-29T23:24:00.035Z,39.77
2018-12-29T23:26:27.778Z,37.73
2018-12-29T23:28:55.506Z,39.93
2018-12-29T23:31:23.225Z,37.30
2018-12-29T23:33:50.987Z,38.13
2018-12-29T23:36:18.745Z,34.87
2018-12-29T23:38:46.370Z,34.70
2018-12-29T23:41:13.858Z,39.40
2018-12-29T23:43:41.916Z,35.40
2018-12-29T23:46:09.778Z,37.40
2018-12-29T23:48:37.158Z,35.97
2018-12-29T23:51:05.544Z,34.03
2018-12-29T23:53:33.617Z,35.97
2018-12-29T23:56:01.829Z,33.83
2018-12-29T23:58:29.248Z,31.93
